sensor_id;sensor_type;location;lat;lon;timestamp;P1;durP1;ratioP1;P2;durP2;ratioP2
76935;SDS011;65881;52.438;16.744;2023-04-12T00:01:08;10.82;;;6.32;;
76935;SDS011;65881;52.438;16.744;2023-04-12T00:03:34;8.77;;;5.80;;
76935;SDS011;65881;52.438;16.744;2023-04-12T00:06:03;8.95;;;5.82;;
76935;SDS011;65881;52.438;16.744;2023-04-12T00:08:31;11.23;;;6.30;;
76935;SDS011;65881;52.438;16.744;2023-04-12T00:10:57;12.38;;;6.93;;
76935;SDS011;65881;52.438;16.744;2023-04-12T00:13:24;10.13;;;6.10;;
76935;SDS011;65881;52.438;16.744;2023-04-12T00:15:49;7.45;;;5.05;;
76935;SDS011;65881;52.438;16.744;2023-04-12T00:18:15;10.75;;;6.07;;
76935;SDS011;65881;52.438;16.744;2023-04-12T00:20:43;6.85;;;5.07;;
76935;SDS011;65881;52.438;16.744;2023-04-12T00:23:09;8.00;;;5.68;;
76935;SDS011;65881;52.438;16.744;2023-04-12T00:25:37;9.80;;;6.30;;
76935;SDS011;65881;52.438;16.744;2023-04-12T00:28:04;10.38;;;6.47;;
76935;SDS011;65881;52.438;16.744;2023-04-12T00:30:33;6.10;;;5.50;;
76935;SDS011;65881;52.438;16.744;2023-04-12T00:33:00;12.45;;;6.78;;
76935;SDS011;65881;52.438;16.744;2023-04-12T00:35:26;9.98;;;6.20;;
76935;SDS011;65881;52.438;16.744;2023-04-12T00:37:52;11.10;;;5.53;;
76935;SDS011;65881;52.438;16.744;2023-04-12T00:40:18;7.40;;;5.00;;
76935;SDS011;65881;52.438;16.744;2023-04-12T00:42:46;9.60;;;5.72;;
76935;SDS011;65881;52.438;16.744;2023-04-12T00:45:12;7.07;;;5.55;;
76935;SDS011;65881;52.438;16.744;2023-04-12T00:47:46;15.40;;;6.05;;
76935;SDS011;65881;52.438;16.744;2023-04-12T00:50:14;6.28;;;5.30;;
76935;SDS011;65881;52.438;16.744;2023-04-12T00:52:40;10.00;;;6.25;;
76935;SDS011;65881;52.438;16.744;2023-04-12T00:55:06;8.82;;;5.78;;
76935;SDS011;65881;52.438;16.744;2023-04-12T00:57:34;8.38;;;6.28;;
76935;SDS011;65881;52.438;16.744;2023-04-12T01:00:09;10.20;;;5.65;;
76935;SDS011;65881;52.438;16.744;2023-04-12T01:02:43;11.82;;;5.88;;
76935;SDS011;65881;52.438;16.744;2023-04-12T01:05:18;8.10;;;5.05;;
76935;SDS011;65881;52.438;16.744;2023-04-12T01:07:54;12.80;;;5.85;;
76935;SDS011;65881;52.438;16.744;2023-04-12T01:10:36;7.47;;;5.18;;
76935;SDS011;65881;52.438;16.744;2023-04-12T01:13:29;11.15;;;6.30;;
76935;SDS011;65881;52.438;16.744;2023-04-12T01:19:06;10.40;;;5.57;;
76935;SDS011;65881;52.438;16.744;2023-04-12T01:21:57;10.98;;;5.60;;
76935;SDS011;65881;52.438;16.744;2023-04-12T01:27:48;11.20;;;6.55;;
76935;SDS011;65881;52.438;16.744;2023-04-12T01:30:20;7.22;;;4.47;;
76935;SDS011;65881;52.438;16.744;2023-04-12T01:32:48;11.40;;;5.88;;
76935;SDS011;65881;52.438;16.744;2023-04-12T01:35:19;11.73;;;5.88;;
76935;SDS011;65881;52.438;16.744;2023-04-12T01:40:32;10.10;;;5.30;;
76935;SDS011;65881;52.438;16.744;2023-04-12T01:45:33;7.60;;;5.20;;
76935;SDS011;65881;52.438;16.744;2023-04-12T01:47:59;9.10;;;5.53;;
76935;SDS011;65881;52.438;16.744;2023-04-12T01:50:28;8.45;;;4.72;;
76935;SDS011;65881;52.438;16.744;2023-04-12T01:53:49;9.90;;;4.88;;
76935;SDS011;65881;52.438;16.744;2023-04-12T01:56:37;9.32;;;5.32;;
76935;SDS011;65881;52.438;16.744;2023-04-12T01:59:07;8.25;;;5.68;;
76935;SDS011;65881;52.438;16.744;2023-04-12T02:01:33;8.55;;;6.32;;
76935;SDS011;65881;52.438;16.744;2023-04-12T02:03:59;10.27;;;5.85;;
76935;SDS011;65881;52.438;16.744;2023-04-12T02:06:26;10.77;;;6.18;;
76935;SDS011;65881;52.438;16.744;2023-04-12T02:08:58;10.18;;;6.32;;
76935;SDS011;65881;52.438;16.744;2023-04-12T02:11:27;11.02;;;6.03;;
76935;SDS011;65881;52.438;16.744;2023-04-12T02:13:53;11.43;;;5.35;;
76935;SDS011;65881;52.438;16.744;2023-04-12T02:16:19;8.82;;;5.85;;
76935;SDS011;65881;52.438;16.744;2023-04-12T02:18:47;7.53;;;5.03;;
76935;SDS011;65881;52.438;16.744;2023-04-12T02:21:16;8.48;;;6.30;;
76935;SDS011;65881;52.438;16.744;2023-04-12T02:23:42;9.75;;;5.78;;
76935;SDS011;65881;52.438;16.744;2023-04-12T02:26:14;6.18;;;4.70;;
76935;SDS011;65881;52.438;16.744;2023-04-12T02:28:40;7.97;;;6.50;;
76935;SDS011;65881;52.438;16.744;2023-04-12T02:31:06;8.30;;;5.85;;
76935;SDS011;65881;52.438;16.744;2023-04-12T02:33:32;9.90;;;6.60;;
76935;SDS011;65881;52.438;16.744;2023-04-12T02:35:59;9.80;;;5.70;;
76935;SDS011;65881;52.438;16.744;2023-04-12T02:38:28;7.53;;;5.53;;
76935;SDS011;65881;52.438;16.744;2023-04-12T02:40:54;9.57;;;5.38;;
76935;SDS011;65881;52.438;16.744;2023-04-12T02:43:20;6.03;;;4.88;;
76935;SDS011;65881;52.438;16.744;2023-04-12T02:45:46;8.70;;;5.95;;
76935;SDS011;65881;52.438;16.744;2023-04-12T02:48:12;10.20;;;5.97;;
76935;SDS011;65881;52.438;16.744;2023-04-12T02:50:43;9.07;;;5.50;;
76935;SDS011;65881;52.438;16.744;2023-04-12T02:53:08;7.28;;;4.65;;
76935;SDS011;65881;52.438;16.744;2023-04-12T02:55:37;15.23;;;6.03;;
76935;SDS011;65881;52.438;16.744;2023-04-12T02:58:03;10.50;;;5.93;;
76935;SDS011;65881;52.438;16.744;2023-04-12T03:06:40;9.38;;;5.60;;
76935;SDS011;65881;52.438;16.744;2023-04-12T03:09:16;10.60;;;5.25;;
76935;SDS011;65881;52.438;16.744;2023-04-12T03:11:42;11.15;;;5.65;;
76935;SDS011;65881;52.438;16.744;2023-04-12T03:14:08;6.80;;;5.07;;
76935;SDS011;65881;52.438;16.744;2023-04-12T03:16:33;6.85;;;5.13;;
76935;SDS011;65881;52.438;16.744;2023-04-12T03:19:10;7.97;;;5.05;;
76935;SDS011;65881;52.438;16.744;2023-04-12T03:21:38;6.20;;;5.18;;
76935;SDS011;65881;52.438;16.744;2023-04-12T03:24:03;12.20;;;6.20;;
76935;SDS011;65881;52.438;16.744;2023-04-12T03:26:35;10.38;;;6.50;;
76935;SDS011;65881;52.438;16.744;2023-04-12T03:29:07;9.75;;;5.40;;
76935;SDS011;65881;52.438;16.744;2023-04-12T03:31:38;7.20;;;5.28;;
76935;SDS011;65881;52.438;16.744;2023-04-12T03:34:04;8.35;;;5.50;;
76935;SDS011;65881;52.438;16.744;2023-04-12T03:36:42;15.23;;;6.35;;
76935;SDS011;65881;52.438;16.744;2023-04-12T03:39:08;8.85;;;5.95;;
76935;SDS011;65881;52.438;16.744;2023-04-12T03:41:34;8.90;;;5.85;;
76935;SDS011;65881;52.438;16.744;2023-04-12T03:44:08;9.30;;;5.72;;
76935;SDS011;65881;52.438;16.744;2023-04-12T03:46:34;8.35;;;5.68;;
76935;SDS011;65881;52.438;16.744;2023-04-12T03:49:00;12.32;;;6.32;;
76935;SDS011;65881;52.438;16.744;2023-04-12T03:51:26;8.75;;;5.57;;
76935;SDS011;65881;52.438;16.744;2023-04-12T03:53:55;9.98;;;5.85;;
76935;SDS011;65881;52.438;16.744;2023-04-12T03:59:12;9.52;;;5.93;;
76935;SDS011;65881;52.438;16.744;2023-04-12T04:01:39;6.45;;;5.15;;
76935;SDS011;65881;52.438;16.744;2023-04-12T04:04:05;7.10;;;5.30;;
76935;SDS011;65881;52.438;16.744;2023-04-12T04:06:32;11.55;;;5.97;;
76935;SDS011;65881;52.438;16.744;2023-04-12T04:09:04;8.10;;;5.05;;
76935;SDS011;65881;52.438;16.744;2023-04-12T04:11:30;8.68;;;6.30;;
76935;SDS011;65881;52.438;16.744;2023-04-12T04:13:56;6.50;;;5.47;;
76935;SDS011;65881;52.438;16.744;2023-04-12T04:16:25;9.93;;;5.90;;
76935;SDS011;65881;52.438;16.744;2023-04-12T04:19:01;9.18;;;6.18;;
76935;SDS011;65881;52.438;16.744;2023-04-12T04:21:27;9.10;;;6.63;;
76935;SDS011;65881;52.438;16.744;2023-04-12T04:23:58;7.75;;;5.65;;
76935;SDS011;65881;52.438;16.744;2023-04-12T04:26:31;8.02;;;6.38;;
76935;SDS011;65881;52.438;16.744;2023-04-12T04:28:57;13.20;;;6.07;;
76935;SDS011;65881;52.438;16.744;2023-04-12T04:31:33;8.45;;;5.93;;
76935;SDS011;65881;52.438;16.744;2023-04-12T04:34:03;9.80;;;6.32;;
76935;SDS011;65881;52.438;16.744;2023-04-12T04:36:33;9.27;;;5.65;;
76935;SDS011;65881;52.438;16.744;2023-04-12T04:39:13;9.88;;;6.22;;
76935;SDS011;65881;52.438;16.744;2023-04-12T04:41:39;9.70;;;5.85;;
76935;SDS011;65881;52.438;16.744;2023-04-12T04:44:06;9.40;;;6.28;;
76935;SDS011;65881;52.438;16.744;2023-04-12T04:46:52;9.75;;;5.93;;
76935;SDS011;65881;52.438;16.744;2023-04-12T04:49:28;9.07;;;5.75;;
76935;SDS011;65881;52.438;16.744;2023-04-12T04:51:54;10.55;;;5.30;;
76935;SDS011;65881;52.438;16.744;2023-04-12T04:54:20;12.65;;;6.30;;
76935;SDS011;65881;52.438;16.744;2023-04-12T04:56:49;8.68;;;6.35;;
76935;SDS011;65881;52.438;16.744;2023-04-12T04:59:30;9.43;;;6.50;;
76935;SDS011;65881;52.438;16.744;2023-04-12T05:01:57;7.18;;;5.60;;
76935;SDS011;65881;52.438;16.744;2023-04-12T05:04:26;7.40;;;4.80;;
76935;SDS011;65881;52.438;16.744;2023-04-12T05:07:09;9.80;;;5.95;;
76935;SDS011;65881;52.438;16.744;2023-04-12T05:10:08;13.38;;;6.30;;
76935;SDS011;65881;52.438;16.744;2023-04-12T05:12:35;8.75;;;6.13;;
76935;SDS011;65881;52.438;16.744;2023-04-12T05:15:01;8.45;;;5.13;;
76935;SDS011;65881;52.438;16.744;2023-04-12T05:17:28;10.45;;;6.13;;
76935;SDS011;65881;52.438;16.744;2023-04-12T05:19:54;9.95;;;6.20;;
76935;SDS011;65881;52.438;16.744;2023-04-12T05:22:25;12.07;;;6.20;;
76935;SDS011;65881;52.438;16.744;2023-04-12T05:24:53;8.43;;;6.05;;
76935;SDS011;65881;52.438;16.744;2023-04-12T05:27:33;7.32;;;5.28;;
76935;SDS011;65881;52.438;16.744;2023-04-12T05:30:03;9.88;;;5.82;;
76935;SDS011;65881;52.438;16.744;2023-04-12T05:43:53;9.30;;;6.25;;
76935;SDS011;65881;52.438;16.744;2023-04-12T05:46:24;9.45;;;5.75;;
76935;SDS011;65881;52.438;16.744;2023-04-12T05:48:56;8.13;;;5.88;;
76935;SDS011;65881;52.438;16.744;2023-04-12T05:54:13;11.15;;;6.05;;
76935;SDS011;65881;52.438;16.744;2023-04-12T05:56:53;7.88;;;6.05;;
76935;SDS011;65881;52.438;16.744;2023-04-12T06:02:11;10.05;;;6.65;;
76935;SDS011;65881;52.438;16.744;2023-04-12T06:04:51;11.30;;;6.88;;
76935;SDS011;65881;52.438;16.744;2023-04-12T06:07:44;11.65;;;6.68;;
76935;SDS011;65881;52.438;16.744;2023-04-12T06:10:14;9.32;;;6.00;;
76935;SDS011;65881;52.438;16.744;2023-04-12T06:12:46;9.73;;;6.75;;
76935;SDS011;65881;52.438;16.744;2023-04-12T06:15:14;11.88;;;6.68;;
76935;SDS011;65881;52.438;16.744;2023-04-12T06:20:30;8.95;;;6.60;;
76935;SDS011;65881;52.438;16.744;2023-04-12T06:23:11;9.75;;;5.75;;
76935;SDS011;65881;52.438;16.744;2023-04-12T06:25:43;10.25;;;6.68;;
76935;SDS011;65881;52.438;16.744;2023-04-12T06:30:46;12.15;;;7.05;;
76935;SDS011;65881;52.438;16.744;2023-04-12T06:33:24;8.75;;;6.45;;
76935;SDS011;65881;52.438;16.744;2023-04-12T06:38:52;9.90;;;6.53;;
76935;SDS011;65881;52.438;16.744;2023-04-12T06:41:21;10.52;;;6.47;;
76935;SDS011;65881;52.438;16.744;2023-04-12T06:43:55;11.82;;;6.72;;
76935;SDS011;65881;52.438;16.744;2023-04-12T06:49:09;9.35;;;6.88;;
76935;SDS011;65881;52.438;16.744;2023-04-12T06:51:48;9.48;;;6.93;;
76935;SDS011;65881;52.438;16.744;2023-04-12T06:54:29;14.38;;;8.68;;
76935;SDS011;65881;52.438;16.744;2023-04-12T06:57:08;12.18;;;7.40;;
76935;SDS011;65881;52.438;16.744;2023-04-12T06:59:37;9.95;;;7.30;;
76935;SDS011;65881;52.438;16.744;2023-04-12T07:13:12;10.50;;;7.40;;
76935;SDS011;65881;52.438;16.744;2023-04-12T07:15:44;15.68;;;10.05;;
76935;SDS011;65881;52.438;16.744;2023-04-12T07:18:25;14.10;;;8.35;;
76935;SDS011;65881;52.438;16.744;2023-04-12T07:20:53;13.20;;;8.57;;
76935;SDS011;65881;52.438;16.744;2023-04-12T07:23:23;14.35;;;9.48;;
76935;SDS011;65881;52.438;16.744;2023-04-12T07:26:04;13.82;;;8.65;;
76935;SDS011;65881;52.438;16.744;2023-04-12T07:28:46;11.35;;;8.00;;
76935;SDS011;65881;52.438;16.744;2023-04-12T07:31:19;12.88;;;7.75;;
76935;SDS011;65881;52.438;16.744;2023-04-12T07:34:08;10.82;;;8.45;;
76935;SDS011;65881;52.438;16.744;2023-04-12T07:36:50;10.68;;;9.20;;
76935;SDS011;65881;52.438;16.744;2023-04-12T07:39:21;12.90;;;8.93;;
76935;SDS011;65881;52.438;16.744;2023-04-12T07:41:53;12.00;;;9.23;;
76935;SDS011;65881;52.438;16.744;2023-04-12T07:44:19;14.93;;;9.90;;
76935;SDS011;65881;52.438;16.744;2023-04-12T07:47:01;13.98;;;9.85;;
76935;SDS011;65881;52.438;16.744;2023-04-12T07:49:43;12.18;;;10.20;;
76935;SDS011;65881;52.438;16.744;2023-04-12T07:52:21;14.45;;;9.20;;
76935;SDS011;65881;52.438;16.744;2023-04-12T07:55:02;12.98;;;10.55;;
76935;SDS011;65881;52.438;16.744;2023-04-12T07:57:28;13.70;;;10.48;;
76935;SDS011;65881;52.438;16.744;2023-04-12T08:00:09;11.32;;;8.98;;
76935;SDS011;65881;52.438;16.744;2023-04-12T08:02:35;10.10;;;8.10;;
76935;SDS011;65881;52.438;16.744;2023-04-12T08:05:07;13.82;;;10.32;;
76935;SDS011;65881;52.438;16.744;2023-04-12T08:10:23;11.73;;;7.90;;
76935;SDS011;65881;52.438;16.744;2023-04-12T08:12:49;12.65;;;9.73;;
76935;SDS011;65881;52.438;16.744;2023-04-12T08:15:24;10.50;;;8.95;;
76935;SDS011;65881;52.438;16.744;2023-04-12T08:18:02;13.35;;;8.82;;
76935;SDS011;65881;52.438;16.744;2023-04-12T08:20:28;12.02;;;7.30;;
76935;SDS011;65881;52.438;16.744;2023-04-12T08:22:54;10.23;;;7.57;;
76935;SDS011;65881;52.438;16.744;2023-04-12T08:25:22;8.65;;;6.25;;
76935;SDS011;65881;52.438;16.744;2023-04-12T08:28:26;11.48;;;5.72;;
76935;SDS011;65881;52.438;16.744;2023-04-12T08:31:17;8.57;;;5.88;;
76935;SDS011;65881;52.438;16.744;2023-04-12T08:36:54;8.50;;;6.40;;
76935;SDS011;65881;52.438;16.744;2023-04-12T08:39:41;6.30;;;5.03;;
76935;SDS011;65881;52.438;16.744;2023-04-12T08:42:24;8.88;;;5.90;;
76935;SDS011;65881;52.438;16.744;2023-04-12T08:45:11;8.07;;;6.80;;
76935;SDS011;65881;52.438;16.744;2023-04-12T08:50:42;6.60;;;5.13;;
76935;SDS011;65881;52.438;16.744;2023-04-12T08:53:32;8.50;;;5.32;;
76935;SDS011;65881;52.438;16.744;2023-04-12T08:56:05;9.65;;;5.28;;
76935;SDS011;65881;52.438;16.744;2023-04-12T08:58:59;5.53;;;4.30;;
76935;SDS011;65881;52.438;16.744;2023-04-12T09:01:29;6.13;;;5.00;;
76935;SDS011;65881;52.438;16.744;2023-04-12T09:04:06;7.30;;;5.78;;
76935;SDS011;65881;52.438;16.744;2023-04-12T09:06:56;6.95;;;4.90;;
76935;SDS011;65881;52.438;16.744;2023-04-12T09:21:54;7.63;;;6.22;;
76935;SDS011;65881;52.438;16.744;2023-04-12T09:24:39;7.35;;;6.38;;
76935;SDS011;65881;52.438;16.744;2023-04-12T09:30:50;6.75;;;6.03;;
76935;SDS011;65881;52.438;16.744;2023-04-12T09:33:38;7.55;;;6.78;;
76935;SDS011;65881;52.438;16.744;2023-04-12T09:36:05;7.85;;;6.40;;
76935;SDS011;65881;52.438;16.744;2023-04-12T09:42:19;6.55;;;5.10;;
76935;SDS011;65881;52.438;16.744;2023-04-12T09:48:03;8.57;;;5.57;;
76935;SDS011;65881;52.438;16.744;2023-04-12T09:50:30;6.68;;;5.32;;
76935;SDS011;65881;52.438;16.744;2023-04-12T09:53:36;7.07;;;5.93;;
76935;SDS011;65881;52.438;16.744;2023-04-12T09:58:41;7.80;;;6.80;;
76935;SDS011;65881;52.438;16.744;2023-04-12T10:07:26;8.30;;;6.90;;
76935;SDS011;65881;52.438;16.744;2023-04-12T10:09:56;9.77;;;6.65;;
76935;SDS011;65881;52.438;16.744;2023-04-12T10:23:56;14.25;;;8.98;;
76935;SDS011;65881;52.438;16.744;2023-04-12T10:33:12;10.15;;;8.20;;
76935;SDS011;65881;52.438;16.744;2023-04-12T10:49:23;9.98;;;8.15;;
76935;SDS011;65881;52.438;16.744;2023-04-12T10:54:43;9.63;;;6.13;;
76935;SDS011;65881;52.438;16.744;2023-04-12T10:58:01;7.57;;;6.63;;
76935;SDS011;65881;52.438;16.744;2023-04-12T11:07:40;11.50;;;6.45;;
76935;SDS011;65881;52.438;16.744;2023-04-12T11:13:37;9.95;;;6.60;;
76935;SDS011;65881;52.438;16.744;2023-04-12T11:16:14;9.57;;;6.70;;
76935;SDS011;65881;52.438;16.744;2023-04-12T11:18:45;9.02;;;7.43;;
76935;SDS011;65881;52.438;16.744;2023-04-12T11:21:40;6.47;;;5.65;;
76935;SDS011;65881;52.438;16.744;2023-04-12T11:24:46;8.32;;;6.72;;
76935;SDS011;65881;52.438;16.744;2023-04-12T11:27:32;8.70;;;6.63;;
76935;SDS011;65881;52.438;16.744;2023-04-12T11:30:07;10.32;;;6.00;;
76935;SDS011;65881;52.438;16.744;2023-04-12T11:32:33;7.97;;;5.95;;
76935;SDS011;65881;52.438;16.744;2023-04-12T11:35:21;9.07;;;6.68;;
76935;SDS011;65881;52.438;16.744;2023-04-12T11:41:00;7.38;;;5.82;;
76935;SDS011;65881;52.438;16.744;2023-04-12T11:43:25;7.72;;;5.82;;
76935;SDS011;65881;52.438;16.744;2023-04-12T11:46:13;10.38;;;7.20;;
76935;SDS011;65881;52.438;16.744;2023-04-12T11:48:50;8.27;;;6.60;;
76935;SDS011;65881;52.438;16.744;2023-04-12T11:51:24;7.90;;;5.53;;
76935;SDS011;65881;52.438;16.744;2023-04-12T11:53:53;7.07;;;6.38;;
76935;SDS011;65881;52.438;16.744;2023-04-12T11:56:22;7.47;;;6.38;;
76935;SDS011;65881;52.438;16.744;2023-04-12T12:04:56;8.25;;;5.22;;
76935;SDS011;65881;52.438;16.744;2023-04-12T12:07:34;7.47;;;5.00;;
76935;SDS011;65881;52.438;16.744;2023-04-12T12:10:12;7.30;;;5.53;;
76935;SDS011;65881;52.438;16.744;2023-04-12T12:12:38;5.97;;;5.35;;
76935;SDS011;65881;52.438;16.744;2023-04-12T12:15:27;5.57;;;4.93;;
76935;SDS011;65881;52.438;16.744;2023-04-12T12:24:10;6.75;;;5.45;;
76935;SDS011;65881;52.438;16.744;2023-04-12T12:26:40;8.27;;;5.43;;
76935;SDS011;65881;52.438;16.744;2023-04-12T12:32:08;5.47;;;4.70;;
76935;SDS011;65881;52.438;16.744;2023-04-12T12:34:36;6.82;;;5.55;;
76935;SDS011;65881;52.438;16.744;2023-04-12T12:40:08;5.80;;;4.93;;
76935;SDS011;65881;52.438;16.744;2023-04-12T12:42:54;5.30;;;4.75;;
76935;SDS011;65881;52.438;16.744;2023-04-12T12:45:51;6.00;;;5.40;;
76935;SDS011;65881;52.438;16.744;2023-04-12T12:48:18;6.55;;;5.50;;
76935;SDS011;65881;52.438;16.744;2023-04-12T12:54:15;4.93;;;4.43;;
76935;SDS011;65881;52.438;16.744;2023-04-12T12:56:49;6.75;;;4.32;;
76935;SDS011;65881;52.438;16.744;2023-04-12T12:59:15;5.38;;;4.53;;
76935;SDS011;65881;52.438;16.744;2023-04-12T13:01:51;8.30;;;4.85;;
76935;SDS011;65881;52.438;16.744;2023-04-12T13:04:19;6.95;;;5.10;;
76935;SDS011;65881;52.438;16.744;2023-04-12T13:12:12;10.30;;;4.88;;
76935;SDS011;65881;52.438;16.744;2023-04-12T13:14:41;6.60;;;5.45;;
76935;SDS011;65881;52.438;16.744;2023-04-12T13:17:09;6.18;;;4.80;;
76935;SDS011;65881;52.438;16.744;2023-04-12T13:19:54;6.57;;;5.80;;
76935;SDS011;65881;52.438;16.744;2023-04-12T13:22:21;5.95;;;5.35;;
76935;SDS011;65881;52.438;16.744;2023-04-12T13:28:08;5.75;;;5.20;;
76935;SDS011;65881;52.438;16.744;2023-04-12T13:31:01;6.15;;;5.53;;
76935;SDS011;65881;52.438;16.744;2023-04-12T13:33:27;6.57;;;5.35;;
76935;SDS011;65881;52.438;16.744;2023-04-12T13:35:56;7.15;;;5.80;;
76935;SDS011;65881;52.438;16.744;2023-04-12T13:38:21;6.53;;;5.60;;
76935;SDS011;65881;52.438;16.744;2023-04-12T13:40:47;6.00;;;5.22;;
76935;SDS011;65881;52.438;16.744;2023-04-12T13:43:31;7.07;;;4.88;;
76935;SDS011;65881;52.438;16.744;2023-04-12T13:45:59;6.05;;;4.90;;
76935;SDS011;65881;52.438;16.744;2023-04-12T13:48:25;5.95;;;4.95;;
76935;SDS011;65881;52.438;16.744;2023-04-12T13:54:15;8.02;;;5.32;;
76935;SDS011;65881;52.438;16.744;2023-04-12T13:56:42;7.47;;;5.30;;
76935;SDS011;65881;52.438;16.744;2023-04-12T13:59:23;7.75;;;5.70;;
76935;SDS011;65881;52.438;16.744;2023-04-12T14:01:55;5.25;;;4.35;;
76935;SDS011;65881;52.438;16.744;2023-04-12T14:04:33;6.40;;;4.93;;
76935;SDS011;65881;52.438;16.744;2023-04-12T14:07:02;6.88;;;4.57;;
76935;SDS011;65881;52.438;16.744;2023-04-12T14:09:34;6.60;;;4.25;;
76935;SDS011;65881;52.438;16.744;2023-04-12T14:12:00;8.27;;;4.95;;
76935;SDS011;65881;52.438;16.744;2023-04-12T14:14:26;4.90;;;4.40;;
76935;SDS011;65881;52.438;16.744;2023-04-12T14:17:08;5.47;;;4.65;;
76935;SDS011;65881;52.438;16.744;2023-04-12T14:19:33;4.95;;;4.50;;
76935;SDS011;65881;52.438;16.744;2023-04-12T14:22:05;7.18;;;4.63;;
76935;SDS011;65881;52.438;16.744;2023-04-12T14:24:34;7.63;;;5.28;;
76935;SDS011;65881;52.438;16.744;2023-04-12T14:27:13;5.38;;;4.45;;
76935;SDS011;65881;52.438;16.744;2023-04-12T14:29:48;7.07;;;4.43;;
76935;SDS011;65881;52.438;16.744;2023-04-12T14:32:14;9.05;;;4.93;;
76935;SDS011;65881;52.438;16.744;2023-04-12T14:34:39;4.72;;;4.25;;
76935;SDS011;65881;52.438;16.744;2023-04-12T14:37:07;5.72;;;4.57;;
76935;SDS011;65881;52.438;16.744;2023-04-12T14:39:34;5.15;;;4.05;;
76935;SDS011;65881;52.438;16.744;2023-04-12T14:42:15;4.43;;;3.75;;
76935;SDS011;65881;52.438;16.744;2023-04-12T14:44:40;3.88;;;3.30;;
76935;SDS011;65881;52.438;16.744;2023-04-12T14:47:06;9.02;;;3.83;;
76935;SDS011;65881;52.438;16.744;2023-04-12T14:49:44;5.32;;;3.40;;
76935;SDS011;65881;52.438;16.744;2023-04-12T14:52:19;3.95;;;3.55;;
76935;SDS011;65881;52.438;16.744;2023-04-12T14:54:45;3.45;;;3.10;;
76935;SDS011;65881;52.438;16.744;2023-04-12T14:57:11;3.20;;;2.90;;
76935;SDS011;65881;52.438;16.744;2023-04-12T14:59:51;4.85;;;3.10;;
76935;SDS011;65881;52.438;16.744;2023-04-12T15:02:31;3.78;;;3.30;;
76935;SDS011;65881;52.438;16.744;2023-04-12T15:04:56;5.50;;;3.53;;
76935;SDS011;65881;52.438;16.744;2023-04-12T15:07:29;4.70;;;3.22;;
76935;SDS011;65881;52.438;16.744;2023-04-12T15:09:54;8.32;;;4.07;;
76935;SDS011;65881;52.438;16.744;2023-04-12T15:12:22;4.53;;;2.97;;
76935;SDS011;65881;52.438;16.744;2023-04-12T15:15:03;8.75;;;3.45;;
76935;SDS011;65881;52.438;16.744;2023-04-12T15:17:30;3.85;;;3.08;;
76935;SDS011;65881;52.438;16.744;2023-04-12T15:19:58;3.20;;;2.90;;
76935;SDS011;65881;52.438;16.744;2023-04-12T15:22:32;5.22;;;3.60;;
76935;SDS011;65881;52.438;16.744;2023-04-12T15:25:25;3.83;;;3.53;;
76935;SDS011;65881;52.438;16.744;2023-04-12T15:28:00;5.45;;;3.53;;
76935;SDS011;65881;52.438;16.744;2023-04-12T15:30:37;3.72;;;2.85;;
76935;SDS011;65881;52.438;16.744;2023-04-12T15:33:03;6.78;;;2.80;;
76935;SDS011;65881;52.438;16.744;2023-04-12T15:35:28;4.72;;;3.92;;
76935;SDS011;65881;52.438;16.744;2023-04-12T15:37:56;6.72;;;3.42;;
76935;SDS011;65881;52.438;16.744;2023-04-12T15:40:29;3.80;;;3.30;;
76935;SDS011;65881;52.438;16.744;2023-04-12T15:43:08;5.50;;;3.03;;
76935;SDS011;65881;52.438;16.744;2023-04-12T15:45:43;3.40;;;3.10;;
76935;SDS011;65881;52.438;16.744;2023-04-12T15:48:09;4.45;;;3.28;;
76935;SDS011;65881;52.438;16.744;2023-04-12T15:50:37;6.55;;;4.13;;
76935;SDS011;65881;52.438;16.744;2023-04-12T16:01:43;6.03;;;3.50;;
76935;SDS011;65881;52.438;16.744;2023-04-12T16:04:12;9.85;;;3.85;;
76935;SDS011;65881;52.438;16.744;2023-04-12T16:06:52;3.50;;;3.17;;
76935;SDS011;65881;52.438;16.744;2023-04-12T16:09:57;4.05;;;3.22;;
76935;SDS011;65881;52.438;16.744;2023-04-12T16:12:23;5.22;;;3.72;;
76935;SDS011;65881;52.438;16.744;2023-04-12T16:17:37;5.00;;;3.60;;
76935;SDS011;65881;52.438;16.744;2023-04-12T16:20:14;7.07;;;4.55;;
76935;SDS011;65881;52.438;16.744;2023-04-12T16:23:03;3.42;;;2.63;;
76935;SDS011;65881;52.438;16.744;2023-04-12T16:25:30;5.00;;;3.40;;
76935;SDS011;65881;52.438;16.744;2023-04-12T16:28:03;4.03;;;3.03;;
76935;SDS011;65881;52.438;16.744;2023-04-12T16:30:43;5.50;;;3.50;;
76935;SDS011;65881;52.438;16.744;2023-04-12T16:33:21;4.93;;;3.25;;
76935;SDS011;65881;52.438;16.744;2023-04-12T16:35:56;7.80;;;3.40;;
76935;SDS011;65881;52.438;16.744;2023-04-12T16:38:31;5.03;;;4.13;;
76935;SDS011;65881;52.438;16.744;2023-04-12T16:40:57;6.00;;;3.28;;
76935;SDS011;65881;52.438;16.744;2023-04-12T16:43:23;6.72;;;3.70;;
76935;SDS011;65881;52.438;16.744;2023-04-12T16:46:01;7.05;;;3.53;;
76935;SDS011;65881;52.438;16.744;2023-04-12T16:49:05;5.25;;;3.42;;
76935;SDS011;65881;52.438;16.744;2023-04-12T16:51:31;6.72;;;3.50;;
76935;SDS011;65881;52.438;16.744;2023-04-12T16:54:19;4.53;;;3.97;;
76935;SDS011;65881;52.438;16.744;2023-04-12T16:56:56;6.57;;;4.03;;
76935;SDS011;65881;52.438;16.744;2023-04-12T16:59:31;4.78;;;4.15;;
76935;SDS011;65881;52.438;16.744;2023-04-12T17:02:06;7.70;;;4.20;;
76935;SDS011;65881;52.438;16.744;2023-04-12T17:04:37;4.95;;;3.80;;
76935;SDS011;65881;52.438;16.744;2023-04-12T17:10:30;7.80;;;3.83;;
76935;SDS011;65881;52.438;16.744;2023-04-12T17:12:59;6.32;;;4.20;;
76935;SDS011;65881;52.438;16.744;2023-04-12T17:15:40;6.72;;;4.38;;
76935;SDS011;65881;52.438;16.744;2023-04-12T17:20:58;5.60;;;4.38;;
76935;SDS011;65881;52.438;16.744;2023-04-12T17:23:57;4.95;;;4.13;;
76935;SDS011;65881;52.438;16.744;2023-04-12T17:26:25;6.30;;;4.88;;
76935;SDS011;65881;52.438;16.744;2023-04-12T17:29:07;6.82;;;4.68;;
76935;SDS011;65881;52.438;16.744;2023-04-12T17:34:48;7.43;;;5.18;;
76935;SDS011;65881;52.438;16.744;2023-04-12T17:37:22;6.97;;;5.13;;
76935;SDS011;65881;52.438;16.744;2023-04-12T17:40:10;9.25;;;5.75;;
76935;SDS011;65881;52.438;16.744;2023-04-12T17:42:55;9.63;;;5.63;;
76935;SDS011;65881;52.438;16.744;2023-04-12T17:45:24;8.23;;;5.70;;
76935;SDS011;65881;52.438;16.744;2023-04-12T17:47:50;9.88;;;5.20;;
76935;SDS011;65881;52.438;16.744;2023-04-12T17:50:30;6.97;;;5.45;;
76935;SDS011;65881;52.438;16.744;2023-04-12T17:52:56;7.70;;;6.18;;
76935;SDS011;65881;52.438;16.744;2023-04-12T17:55:47;10.57;;;6.15;;
76935;SDS011;65881;52.438;16.744;2023-04-12T17:58:31;9.32;;;6.20;;
76935;SDS011;65881;52.438;16.744;2023-04-12T18:01:19;9.25;;;6.40;;
76935;SDS011;65881;52.438;16.744;2023-04-12T18:03:47;8.80;;;6.88;;
76935;SDS011;65881;52.438;16.744;2023-04-12T18:06:14;11.50;;;6.88;;
76935;SDS011;65881;52.438;16.744;2023-04-12T18:09:04;11.20;;;7.32;;
76935;SDS011;65881;52.438;16.744;2023-04-12T18:11:45;10.45;;;7.72;;
76935;SDS011;65881;52.438;16.744;2023-04-12T18:14:11;10.82;;;7.88;;
76935;SDS011;65881;52.438;16.744;2023-04-12T18:16:49;10.20;;;7.93;;
76935;SDS011;65881;52.438;16.744;2023-04-12T18:19:15;11.93;;;6.90;;
76935;SDS011;65881;52.438;16.744;2023-04-12T18:21:58;8.25;;;6.97;;
76935;SDS011;65881;52.438;16.744;2023-04-12T18:24:36;15.00;;;8.48;;
76935;SDS011;65881;52.438;16.744;2023-04-12T18:27:02;12.85;;;9.65;;
76935;SDS011;65881;52.438;16.744;2023-04-12T18:29:39;15.65;;;10.52;;